sensor_id;sensor_type;location;lat;lon;timestamp;P1;durP1;ratioP1;P2;durP2;ratioP2
11699;SDS011;5906;51.660;6.674;2022-09-09T00:01:52;5.80;;;1.67;;
11699;SDS011;5906;51.660;6.674;2022-09-09T00:07:19;3.50;;;1.57;;
11699;SDS011;5906;51.660;6.674;2022-09-09T00:10:00;2.40;;;1.53;;
11699;SDS011;5906;51.660;6.674;2022-09-09T00:18:29;2.13;;;1.60;;
11699;SDS011;5906;51.660;6.674;2022-09-09T00:21:22;2.70;;;1.57;;
11699;SDS011;5906;51.660;6.674;2022-09-09T00:23:59;2.53;;;1.60;;
11699;SDS011;5906;51.660;6.674;2022-09-09T00:26:42;1.73;;;1.47;;
11699;SDS011;5906;51.660;6.674;2022-09-09T00:32:00;1.87;;;1.53;;
11699;SDS011;5906;51.660;6.674;2022-09-09T00:34:46;3.10;;;1.70;;
11699;SDS011;5906;51.660;6.674;2022-09-09T00:37:19;2.87;;;1.70;;
11699;SDS011;5906;51.660;6.674;2022-09-09T00:39:47;3.70;;;1.70;;
11699;SDS011;5906;51.660;6.674;2022-09-09T00:42:20;1.87;;;1.77;;
11699;SDS011;5906;51.660;6.674;2022-09-09T00:44:51;2.70;;;1.80;;
11699;SDS011;5906;51.660;6.674;2022-09-09T00:53:12;3.30;;;1.80;;
11699;SDS011;5906;51.660;6.674;2022-09-09T00:55:52;2.20;;;1.80;;
11699;SDS011;5906;51.660;6.674;2022-09-09T00:58:42;3.37;;;1.80;;
11699;SDS011;5906;51.660;6.674;2022-09-09T01:01:16;2.40;;;1.77;;
11699;SDS011;5906;51.660;6.674;2022-09-09T01:03:53;3.73;;;1.57;;
11699;SDS011;5906;51.660;6.674;2022-09-09T01:06:31;1.93;;;1.70;;
11699;SDS011;5906;51.660;6.674;2022-09-09T01:11:52;1.70;;;1.50;;
11699;SDS011;5906;51.660;6.674;2022-09-09T01:17:01;2.03;;;1.73;;
11699;SDS011;5906;51.660;6.674;2022-09-09T01:19:52;1.60;;;1.50;;
11699;SDS011;5906;51.660;6.674;2022-09-09T01:28:35;2.30;;;1.80;;
11699;SDS011;5906;51.660;6.674;2022-09-09T01:31:04;4.30;;;2.57;;
11699;SDS011;5906;51.660;6.674;2022-09-09T01:33:34;2.73;;;1.70;;
11699;SDS011;5906;51.660;6.674;2022-09-09T01:36:05;3.10;;;1.90;;
11699;SDS011;5906;51.660;6.674;2022-09-09T01:38:46;5.17;;;2.60;;
11699;SDS011;5906;51.660;6.674;2022-09-09T01:41:13;2.70;;;1.80;;
11699;SDS011;5906;51.660;6.674;2022-09-09T01:43:40;2.87;;;2.00;;
11699;SDS011;5906;51.660;6.674;2022-09-09T01:46:06;2.73;;;2.30;;
11699;SDS011;5906;51.660;6.674;2022-09-09T01:48:34;4.70;;;2.37;;
11699;SDS011;5906;51.660;6.674;2022-09-09T01:51:00;2.70;;;2.10;;
11699;SDS011;5906;51.660;6.674;2022-09-09T01:53:27;3.50;;;2.00;;
11699;SDS011;5906;51.660;6.674;2022-09-09T01:55:58;2.30;;;2.10;;
11699;SDS011;5906;51.660;6.674;2022-09-09T02:01:53;2.60;;;1.87;;
11699;SDS011;5906;51.660;6.674;2022-09-09T02:04:50;2.33;;;2.03;;
11699;SDS011;5906;51.660;6.674;2022-09-09T02:07:28;3.00;;;2.10;;
11699;SDS011;5906;51.660;6.674;2022-09-09T02:10:08;4.80;;;2.33;;
11699;SDS011;5906;51.660;6.674;2022-09-09T02:12:51;3.07;;;2.07;;
11699;SDS011;5906;51.660;6.674;2022-09-09T02:15:26;3.93;;;3.13;;
11699;SDS011;5906;51.660;6.674;2022-09-09T02:18:02;4.33;;;2.23;;
11699;SDS011;5906;51.660;6.674;2022-09-09T02:20:32;2.83;;;2.20;;
11699;SDS011;5906;51.660;6.674;2022-09-09T02:23:00;2.40;;;1.90;;
11699;SDS011;5906;51.660;6.674;2022-09-09T02:25:28;2.37;;;2.17;;
11699;SDS011;5906;51.660;6.674;2022-09-09T02:27:56;4.53;;;2.27;;
11699;SDS011;5906;51.660;6.674;2022-09-09T02:30:27;3.70;;;2.20;;
11699;SDS011;5906;51.660;6.674;2022-09-09T02:32:56;3.27;;;2.17;;
11699;SDS011;5906;51.660;6.674;2022-09-09T02:35:25;5.07;;;2.83;;
11699;SDS011;5906;51.660;6.674;2022-09-09T02:37:55;3.13;;;2.37;;
11699;SDS011;5906;51.660;6.674;2022-09-09T02:40:25;3.20;;;2.80;;
11699;SDS011;5906;51.660;6.674;2022-09-09T02:42:53;4.03;;;2.57;;
11699;SDS011;5906;51.660;6.674;2022-09-09T02:45:23;2.60;;;2.40;;
11699;SDS011;5906;51.660;6.674;2022-09-09T02:47:55;6.57;;;2.63;;
11699;SDS011;5906;51.660;6.674;2022-09-09T02:53:53;7.40;;;2.90;;
11699;SDS011;5906;51.660;6.674;2022-09-09T02:56:25;7.70;;;3.23;;
11699;SDS011;5906;51.660;6.674;2022-09-09T02:58:56;7.30;;;3.53;;
11699;SDS011;5906;51.660;6.674;2022-09-09T03:01:23;5.17;;;2.93;;
11699;SDS011;5906;51.660;6.674;2022-09-09T03:03:50;4.40;;;3.03;;
11699;SDS011;5906;51.660;6.674;2022-09-09T03:06:17;3.53;;;3.03;;
11699;SDS011;5906;51.660;6.674;2022-09-09T03:08:43;3.30;;;3.00;;
11699;SDS011;5906;51.660;6.674;2022-09-09T03:11:15;3.23;;;2.93;;
11699;SDS011;5906;51.660;6.674;2022-09-09T03:13:42;5.80;;;3.50;;
11699;SDS011;5906;51.660;6.674;2022-09-09T03:16:09;6.20;;;2.97;;
11699;SDS011;5906;51.660;6.674;2022-09-09T03:18:36;4.43;;;3.37;;
11699;SDS011;5906;51.660;6.674;2022-09-09T03:21:03;7.40;;;3.43;;
11699;SDS011;5906;51.660;6.674;2022-09-09T03:23:30;3.20;;;2.90;;
11699;SDS011;5906;51.660;6.674;2022-09-09T03:25:56;5.40;;;3.07;;
11699;SDS011;5906;51.660;6.674;2022-09-09T03:28:24;5.20;;;3.40;;
11699;SDS011;5906;51.660;6.674;2022-09-09T03:31:04;5.20;;;3.03;;
11699;SDS011;5906;51.660;6.674;2022-09-09T03:33:32;4.60;;;3.33;;
11699;SDS011;5906;51.660;6.674;2022-09-09T03:35:58;4.07;;;2.97;;
11699;SDS011;5906;51.660;6.674;2022-09-09T03:38:25;4.80;;;3.10;;
11699;SDS011;5906;51.660;6.674;2022-09-09T03:40:52;4.90;;;2.93;;
11699;SDS011;5906;51.660;6.674;2022-09-09T03:43:24;2.90;;;2.57;;
11699;SDS011;5906;51.660;6.674;2022-09-09T03:45:52;3.57;;;2.63;;
11699;SDS011;5906;51.660;6.674;2022-09-09T03:48:23;3.37;;;2.70;;
11699;SDS011;5906;51.660;6.674;2022-09-09T03:50:51;2.30;;;2.10;;
11699;SDS011;5906;51.660;6.674;2022-09-09T03:53:20;3.90;;;2.37;;
11699;SDS011;5906;51.660;6.674;2022-09-09T03:55:49;6.97;;;2.57;;
11699;SDS011;5906;51.660;6.674;2022-09-09T03:58:21;2.87;;;2.40;;
11699;SDS011;5906;51.660;6.674;2022-09-09T04:00:54;4.10;;;2.40;;
11699;SDS011;5906;51.660;6.674;2022-09-09T04:03:22;6.77;;;2.50;;
11699;SDS011;5906;51.660;6.674;2022-09-09T04:05:53;4.70;;;3.83;;
11699;SDS011;5906;51.660;6.674;2022-09-09T04:08:21;3.00;;;2.13;;
11699;SDS011;5906;51.660;6.674;2022-09-09T04:10:51;2.57;;;2.27;;
11699;SDS011;5906;51.660;6.674;2022-09-09T04:13:19;6.63;;;2.10;;
11699;SDS011;5906;51.660;6.674;2022-09-09T04:15:53;3.07;;;1.90;;
11699;SDS011;5906;51.660;6.674;2022-09-09T04:18:21;2.30;;;2.10;;
11699;SDS011;5906;51.660;6.674;2022-09-09T04:20:49;5.07;;;2.30;;
11699;SDS011;5906;51.660;6.674;2022-09-09T04:23:16;3.10;;;2.23;;
11699;SDS011;5906;51.660;6.674;2022-09-09T04:25:47;4.53;;;2.10;;
11699;SDS011;5906;51.660;6.674;2022-09-09T04:28:16;3.53;;;2.00;;
11699;SDS011;5906;51.660;6.674;2022-09-09T04:30:44;5.63;;;2.80;;
11699;SDS011;5906;51.660;6.674;2022-09-09T04:33:11;5.47;;;2.17;;
11699;SDS011;5906;51.660;6.674;2022-09-09T04:35:39;7.00;;;2.80;;
11699;SDS011;5906;51.660;6.674;2022-09-09T04:38:16;7.07;;;2.77;;
11699;SDS011;5906;51.660;6.674;2022-09-09T04:40:43;5.23;;;2.13;;
11699;SDS011;5906;51.660;6.674;2022-09-09T04:43:12;4.73;;;2.47;;
11699;SDS011;5906;51.660;6.674;2022-09-09T04:45:41;7.00;;;2.33;;
11699;SDS011;5906;51.660;6.674;2022-09-09T04:48:08;7.70;;;2.83;;
11699;SDS011;5906;51.660;6.674;2022-09-09T04:50:38;3.60;;;2.30;;
11699;SDS011;5906;51.660;6.674;2022-09-09T04:53:06;2.80;;;2.50;;
11699;SDS011;5906;51.660;6.674;2022-09-09T04:55:34;4.17;;;2.40;;
11699;SDS011;5906;51.660;6.674;2022-09-09T04:58:05;2.90;;;2.30;;
11699;SDS011;5906;51.660;6.674;2022-09-09T05:00:34;2.03;;;1.90;;
11699;SDS011;5906;51.660;6.674;2022-09-09T05:03:02;2.70;;;2.10;;
11699;SDS011;5906;51.660;6.674;2022-09-09T05:05:30;10.83;;;2.77;;
11699;SDS011;5906;51.660;6.674;2022-09-09T05:08:01;4.40;;;2.40;;
11699;SDS011;5906;51.660;6.674;2022-09-09T05:10:28;4.63;;;2.87;;
11699;SDS011;5906;51.660;6.674;2022-09-09T05:12:55;5.73;;;2.47;;
11699;SDS011;5906;51.660;6.674;2022-09-09T05:15:22;10.73;;;2.30;;
11699;SDS011;5906;51.660;6.674;2022-09-09T05:17:48;7.20;;;2.77;;
11699;SDS011;5906;51.660;6.674;2022-09-09T05:20:15;3.33;;;2.30;;
11699;SDS011;5906;51.660;6.674;2022-09-09T05:22:42;5.23;;;2.00;;
11699;SDS011;5906;51.660;6.674;2022-09-09T05:25:09;6.60;;;2.70;;
11699;SDS011;5906;51.660;6.674;2022-09-09T05:27:36;4.13;;;2.03;;
11699;SDS011;5906;51.660;6.674;2022-09-09T05:30:03;4.00;;;2.50;;
11699;SDS011;5906;51.660;6.674;2022-09-09T05:32:30;2.57;;;2.00;;
11699;SDS011;5906;51.660;6.674;2022-09-09T05:35:00;6.47;;;2.60;;
11699;SDS011;5906;51.660;6.674;2022-09-09T05:37:27;4.80;;;2.30;;
11699;SDS011;5906;51.660;6.674;2022-09-09T05:39:56;6.50;;;2.37;;
11699;SDS011;5906;51.660;6.674;2022-09-09T05:42:24;11.60;;;2.53;;
11699;SDS011;5906;51.660;6.674;2022-09-09T05:44:50;6.37;;;2.40;;
11699;SDS011;5906;51.660;6.674;2022-09-09T05:47:20;19.67;;;2.17;;
11699;SDS011;5906;51.660;6.674;2022-09-09T05:49:47;4.53;;;2.33;;
11699;SDS011;5906;51.660;6.674;2022-09-09T05:52:13;5.57;;;2.73;;
11699;SDS011;5906;51.660;6.674;2022-09-09T05:54:40;3.80;;;2.50;;
11699;SDS011;5906;51.660;6.674;2022-09-09T05:57:08;4.13;;;2.33;;
11699;SDS011;5906;51.660;6.674;2022-09-09T05:59:35;5.30;;;3.00;;
11699;SDS011;5906;51.660;6.674;2022-09-09T06:02:01;6.30;;;2.30;;
11699;SDS011;5906;51.660;6.674;2022-09-09T06:04:28;11.43;;;3.00;;
11699;SDS011;5906;51.660;6.674;2022-09-09T06:06:56;6.80;;;2.43;;
11699;SDS011;5906;51.660;6.674;2022-09-09T06:09:23;6.87;;;2.90;;
11699;SDS011;5906;51.660;6.674;2022-09-09T06:11:49;6.33;;;2.57;;
11699;SDS011;5906;51.660;6.674;2022-09-09T06:14:16;5.90;;;3.00;;
11699;SDS011;5906;51.660;6.674;2022-09-09T06:16:44;6.27;;;2.80;;
11699;SDS011;5906;51.660;6.674;2022-09-09T06:19:10;7.87;;;2.93;;
11699;SDS011;5906;51.660;6.674;2022-09-09T06:21:38;11.43;;;3.10;;
11699;SDS011;5906;51.660;6.674;2022-09-09T06:24:06;5.20;;;2.50;;
11699;SDS011;5906;51.660;6.674;2022-09-09T06:26:37;5.83;;;3.10;;
11699;SDS011;5906;51.660;6.674;2022-09-09T06:29:08;8.00;;;2.70;;
11699;SDS011;5906;51.660;6.674;2022-09-09T06:31:35;3.87;;;2.93;;
11699;SDS011;5906;51.660;6.674;2022-09-09T06:34:06;5.93;;;2.60;;
11699;SDS011;5906;51.660;6.674;2022-09-09T06:36:35;4.23;;;2.40;;
11699;SDS011;5906;51.660;6.674;2022-09-09T06:39:04;5.83;;;3.20;;
11699;SDS011;5906;51.660;6.674;2022-09-09T06:41:38;7.33;;;2.67;;
11699;SDS011;5906;51.660;6.674;2022-09-09T06:44:05;6.77;;;2.77;;
11699;SDS011;5906;51.660;6.674;2022-09-09T06:46:32;7.67;;;2.50;;
11699;SDS011;5906;51.660;6.674;2022-09-09T06:48:59;5.37;;;3.20;;
11699;SDS011;5906;51.660;6.674;2022-09-09T06:51:28;8.33;;;2.80;;
11699;SDS011;5906;51.660;6.674;2022-09-09T06:54:00;6.33;;;2.70;;
11699;SDS011;5906;51.660;6.674;2022-09-09T06:59:01;5.97;;;2.17;;
11699;SDS011;5906;51.660;6.674;2022-09-09T07:01:31;5.10;;;2.50;;
11699;SDS011;5906;51.660;6.674;2022-09-09T07:04:00;8.43;;;2.70;;
11699;SDS011;5906;51.660;6.674;2022-09-09T07:06:28;5.20;;;2.53;;
11699;SDS011;5906;51.660;6.674;2022-09-09T07:08:59;7.33;;;2.27;;
11699;SDS011;5906;51.660;6.674;2022-09-09T07:11:33;7.87;;;2.10;;
11699;SDS011;5906;51.660;6.674;2022-09-09T07:14:04;9.77;;;2.67;;
11699;SDS011;5906;51.660;6.674;2022-09-09T07:16:31;5.77;;;2.13;;
11699;SDS011;5906;51.660;6.674;2022-09-09T07:18:59;4.90;;;2.10;;
11699;SDS011;5906;51.660;6.674;2022-09-09T07:21:27;5.33;;;2.13;;
11699;SDS011;5906;51.660;6.674;2022-09-09T07:23:55;7.87;;;2.53;;
11699;SDS011;5906;51.660;6.674;2022-09-09T07:26:23;8.03;;;1.93;;
11699;SDS011;5906;51.660;6.674;2022-09-09T07:28:52;9.77;;;2.53;;
11699;SDS011;5906;51.660;6.674;2022-09-09T07:31:26;7.57;;;2.13;;
11699;SDS011;5906;51.660;6.674;2022-09-09T07:33:56;8.10;;;2.13;;
11699;SDS011;5906;51.660;6.674;2022-09-09T07:36:24;6.00;;;2.03;;
11699;SDS011;5906;51.660;6.674;2022-09-09T07:39:04;7.40;;;2.33;;
11699;SDS011;5906;51.660;6.674;2022-09-09T07:41:33;5.67;;;2.13;;
11699;SDS011;5906;51.660;6.674;2022-09-09T07:44:05;6.23;;;2.50;;
11699;SDS011;5906;51.660;6.674;2022-09-09T07:46:34;7.07;;;2.63;;
11699;SDS011;5906;51.660;6.674;2022-09-09T07:49:02;9.33;;;1.90;;
11699;SDS011;5906;51.660;6.674;2022-09-09T07:51:30;4.57;;;2.20;;
11699;SDS011;5906;51.660;6.674;2022-09-09T07:54:00;10.17;;;2.43;;
11699;SDS011;5906;51.660;6.674;2022-09-09T07:56:29;3.73;;;2.20;;
11699;SDS011;5906;51.660;6.674;2022-09-09T07:58:59;5.57;;;2.73;;
11699;SDS011;5906;51.660;6.674;2022-09-09T08:01:27;9.00;;;2.40;;
11699;SDS011;5906;51.660;6.674;2022-09-09T08:03:56;10.27;;;2.30;;
11699;SDS011;5906;51.660;6.674;2022-09-09T08:06:28;4.00;;;1.60;;
11699;SDS011;5906;51.660;6.674;2022-09-09T08:08:58;11.23;;;2.23;;
11699;SDS011;5906;51.660;6.674;2022-09-09T08:11:27;14.70;;;2.50;;
11699;SDS011;5906;51.660;6.674;2022-09-09T08:13:55;2.23;;;1.77;;
11699;SDS011;5906;51.660;6.674;2022-09-09T08:16:31;5.07;;;2.10;;
11699;SDS011;5906;51.660;6.674;2022-09-09T08:19:02;14.87;;;2.07;;
11699;SDS011;5906;51.660;6.674;2022-09-09T08:21:30;4.83;;;1.80;;
11699;SDS011;5906;51.660;6.674;2022-09-09T08:23:59;4.33;;;1.97;;
11699;SDS011;5906;51.660;6.674;2022-09-09T08:26:28;8.40;;;1.70;;
11699;SDS011;5906;51.660;6.674;2022-09-09T08:29:01;8.70;;;1.80;;
11699;SDS011;5906;51.660;6.674;2022-09-09T08:31:33;9.30;;;2.03;;
11699;SDS011;5906;51.660;6.674;2022-09-09T08:34:01;2.00;;;1.50;;
11699;SDS011;5906;51.660;6.674;2022-09-09T08:36:31;3.03;;;1.70;;
11699;SDS011;5906;51.660;6.674;2022-09-09T08:39:01;3.87;;;2.00;;
11699;SDS011;5906;51.660;6.674;2022-09-09T08:47:25;6.90;;;2.30;;
11699;SDS011;5906;51.660;6.674;2022-09-09T08:50:05;4.80;;;2.00;;
11699;SDS011;5906;51.660;6.674;2022-09-09T08:52:54;4.23;;;1.80;;
11699;SDS011;5906;51.660;6.674;2022-09-09T08:58:25;7.53;;;2.00;;
11699;SDS011;5906;51.660;6.674;2022-09-09T09:03:53;6.87;;;2.30;;
11699;SDS011;5906;51.660;6.674;2022-09-09T09:09:16;6.83;;;1.73;;
11699;SDS011;5906;51.660;6.674;2022-09-09T09:14:28;3.90;;;1.90;;
11699;SDS011;5906;51.660;6.674;2022-09-09T09:16:57;5.30;;;1.63;;
11699;SDS011;5906;51.660;6.674;2022-09-09T09:19:30;11.43;;;2.27;;
11699;SDS011;5906;51.660;6.674;2022-09-09T09:24:54;7.03;;;1.83;;
11699;SDS011;5906;51.660;6.674;2022-09-09T09:27:43;5.47;;;1.70;;
11699;SDS011;5906;51.660;6.674;2022-09-09T09:30:39;3.00;;;1.90;;
11699;SDS011;5906;51.660;6.674;2022-09-09T09:33:15;1.53;;;1.43;;
11699;SDS011;5906;51.660;6.674;2022-09-09T09:35:48;5.30;;;2.20;;
11699;SDS011;5906;51.660;6.674;2022-09-09T09:38:24;3.37;;;1.60;;
11699;SDS011;5906;51.660;6.674;2022-09-09T09:41:13;4.57;;;2.73;;
11699;SDS011;5906;51.660;6.674;2022-09-09T09:43:40;3.50;;;2.00;;
11699;SDS011;5906;51.660;6.674;2022-09-09T09:46:22;3.20;;;1.83;;
11699;SDS011;5906;51.660;6.674;2022-09-09T09:49:03;3.10;;;1.67;;
11699;SDS011;5906;51.660;6.674;2022-09-09T09:51:34;2.90;;;1.67;;
11699;SDS011;5906;51.660;6.674;2022-09-09T09:54:17;4.40;;;1.77;;
11699;SDS011;5906;51.660;6.674;2022-09-09T09:56:53;5.30;;;1.83;;
11699;SDS011;5906;51.660;6.674;2022-09-09T09:59:39;7.20;;;1.90;;
11699;SDS011;5906;51.660;6.674;2022-09-09T10:04:39;3.87;;;1.70;;
11699;SDS011;5906;51.660;6.674;2022-09-09T10:07:24;3.37;;;1.77;;
11699;SDS011;5906;51.660;6.674;2022-09-09T10:09:53;4.40;;;1.70;;
11699;SDS011;5906;51.660;6.674;2022-09-09T10:18:25;3.90;;;1.60;;
11699;SDS011;5906;51.660;6.674;2022-09-09T10:26:35;6.10;;;1.60;;
11699;SDS011;5906;51.660;6.674;2022-09-09T10:35:35;1.83;;;1.57;;
11699;SDS011;5906;51.660;6.674;2022-09-09T10:38:18;3.87;;;1.67;;
11699;SDS011;5906;51.660;6.674;2022-09-09T10:41:03;4.60;;;1.70;;
11699;SDS011;5906;51.660;6.674;2022-09-09T10:47:05;2.23;;;1.30;;
11699;SDS011;5906;51.660;6.674;2022-09-09T10:50:07;3.30;;;1.67;;
11699;SDS011;5906;51.660;6.674;2022-09-09T10:56:07;2.83;;;1.40;;
11699;SDS011;5906;51.660;6.674;2022-09-09T10:58:53;6.60;;;1.80;;
11699;SDS011;5906;51.660;6.674;2022-09-09T11:01:31;7.20;;;1.70;;
11699;SDS011;5906;51.660;6.674;2022-09-09T11:06:49;5.60;;;1.47;;
11699;SDS011;5906;51.660;6.674;2022-09-09T11:09:24;3.40;;;1.40;;
11699;SDS011;5906;51.660;6.674;2022-09-09T11:11:56;4.20;;;1.83;;
11699;SDS011;5906;51.660;6.674;2022-09-09T11:14:29;2.13;;;1.40;;
11699;SDS011;5906;51.660;6.674;2022-09-09T11:20:28;4.23;;;1.70;;
11699;SDS011;5906;51.660;6.674;2022-09-09T11:22:58;9.73;;;1.90;;
11699;SDS011;5906;51.660;6.674;2022-09-09T11:25:40;7.70;;;1.97;;
11699;SDS011;5906;51.660;6.674;2022-09-09T11:31:10;5.50;;;1.80;;
11699;SDS011;5906;51.660;6.674;2022-09-09T11:41:49;2.13;;;1.60;;
11699;SDS011;5906;51.660;6.674;2022-09-09T11:44:23;3.63;;;1.87;;
11699;SDS011;5906;51.660;6.674;2022-09-09T11:46:56;2.07;;;1.37;;
11699;SDS011;5906;51.660;6.674;2022-09-09T11:49:39;5.10;;;1.93;;
11699;SDS011;5906;51.660;6.674;2022-09-09T11:55:24;4.27;;;1.90;;
11699;SDS011;5906;51.660;6.674;2022-09-09T11:58:00;1.57;;;1.47;;
11699;SDS011;5906;51.660;6.674;2022-09-09T12:05:56;2.70;;;1.20;;
11699;SDS011;5906;51.660;6.674;2022-09-09T12:08:26;12.97;;;2.03;;
11699;SDS011;5906;51.660;6.674;2022-09-09T12:10:55;3.30;;;1.83;;
11699;SDS011;5906;51.660;6.674;2022-09-09T12:13:24;4.80;;;1.80;;
11699;SDS011;5906;51.660;6.674;2022-09-09T12:15:53;12.90;;;2.00;;
11699;SDS011;5906;51.660;6.674;2022-09-09T12:26:28;5.63;;;1.70;;
11699;SDS011;5906;51.660;6.674;2022-09-09T12:31:42;2.03;;;1.60;;
11699;SDS011;5906;51.660;6.674;2022-09-09T12:34:15;3.77;;;1.60;;
11699;SDS011;5906;51.660;6.674;2022-09-09T12:36:50;3.27;;;1.57;;
11699;SDS011;5906;51.660;6.674;2022-09-09T12:39:28;4.73;;;1.60;;
11699;SDS011;5906;51.660;6.674;2022-09-09T12:41:59;2.90;;;1.30;;
11699;SDS011;5906;51.660;6.674;2022-09-09T12:44:26;3.20;;;1.60;;
11699;SDS011;5906;51.660;6.674;2022-09-09T12:46:56;6.40;;;2.17;;
11699;SDS011;5906;51.660;6.674;2022-09-09T12:52:01;1.90;;;1.67;;
11699;SDS011;5906;51.660;6.674;2022-09-09T12:54:45;3.37;;;1.70;;
11699;SDS011;5906;51.660;6.674;2022-09-09T12:57:13;9.40;;;1.87;;
11699;SDS011;5906;51.660;6.674;2022-09-09T12:59:42;4.33;;;2.00;;
11699;SDS011;5906;51.660;6.674;2022-09-09T13:02:16;4.60;;;1.97;;
11699;SDS011;5906;51.660;6.674;2022-09-09T13:04:47;5.60;;;2.10;;
11699;SDS011;5906;51.660;6.674;2022-09-09T13:07:17;5.97;;;1.97;;
11699;SDS011;5906;51.660;6.674;2022-09-09T13:09:45;1.57;;;1.47;;
11699;SDS011;5906;51.660;6.674;2022-09-09T13:12:19;5.00;;;2.00;;
11699;SDS011;5906;51.660;6.674;2022-09-09T13:14:52;4.77;;;2.00;;
11699;SDS011;5906;51.660;6.674;2022-09-09T13:17:23;8.73;;;2.33;;
11699;SDS011;5906;51.660;6.674;2022-09-09T13:19:53;5.17;;;2.50;;
11699;SDS011;5906;51.660;6.674;2022-09-09T13:22:31;3.73;;;2.50;;
11699;SDS011;5906;51.660;6.674;2022-09-09T13:27:38;6.53;;;2.33;;
11699;SDS011;5906;51.660;6.674;2022-09-09T13:35:51;6.77;;;1.77;;
11699;SDS011;5906;51.660;6.674;2022-09-09T13:38:21;4.63;;;1.90;;
11699;SDS011;5906;51.660;6.674;2022-09-09T13:43:34;6.00;;;2.37;;
11699;SDS011;5906;51.660;6.674;2022-09-09T13:46:05;1.77;;;1.67;;
11699;SDS011;5906;51.660;6.674;2022-09-09T13:48:53;1.80;;;1.57;;
11699;SDS011;5906;51.660;6.674;2022-09-09T13:51:28;4.80;;;1.63;;
11699;SDS011;5906;51.660;6.674;2022-09-09T13:54:09;5.37;;;1.80;;
11699;SDS011;5906;51.660;6.674;2022-09-09T13:56:36;2.20;;;1.50;;
11699;SDS011;5906;51.660;6.674;2022-09-09T13:59:05;3.17;;;1.77;;
11699;SDS011;5906;51.660;6.674;2022-09-09T14:01:35;8.03;;;1.90;;
11699;SDS011;5906;51.660;6.674;2022-09-09T14:04:03;2.73;;;1.53;;
11699;SDS011;5906;51.660;6.674;2022-09-09T14:06:34;2.00;;;1.50;;
11699;SDS011;5906;51.660;6.674;2022-09-09T14:09:05;4.03;;;1.67;;
11699;SDS011;5906;51.660;6.674;2022-09-09T14:11:33;2.97;;;1.63;;
11699;SDS011;5906;51.660;6.674;2022-09-09T14:14:00;1.83;;;1.60;;
11699;SDS011;5906;51.660;6.674;2022-09-09T14:16:27;2.67;;;1.70;;
11699;SDS011;5906;51.660;6.674;2022-09-09T14:18:54;3.47;;;2.10;;
11699;SDS011;5906;51.660;6.674;2022-09-09T14:21:25;3.03;;;1.57;;
11699;SDS011;5906;51.660;6.674;2022-09-09T14:23:53;7.40;;;1.80;;
11699;SDS011;5906;51.660;6.674;2022-09-09T14:26:23;1.60;;;1.40;;
11699;SDS011;5906;51.660;6.674;2022-09-09T14:28:51;5.07;;;2.00;;
11699;SDS011;5906;51.660;6.674;2022-09-09T14:31:22;2.40;;;1.70;;
11699;SDS011;5906;51.660;6.674;2022-09-09T14:33:49;3.13;;;1.77;;
11699;SDS011;5906;51.660;6.674;2022-09-09T14:36:17;5.40;;;1.80;;
11699;SDS011;5906;51.660;6.674;2022-09-09T14:38:43;3.00;;;1.50;;
11699;SDS011;5906;51.660;6.674;2022-09-09T14:41:11;3.17;;;1.60;;
11699;SDS011;5906;51.660;6.674;2022-09-09T14:43:39;2.63;;;1.77;;
11699;SDS011;5906;51.660;6.674;2022-09-09T14:48:40;3.00;;;2.00;;
11699;SDS011;5906;51.660;6.674;2022-09-09T14:51:08;8.03;;;3.60;;
11699;SDS011;5906;51.660;6.674;2022-09-09T14:53:36;5.17;;;2.20;;
11699;SDS011;5906;51.660;6.674;2022-09-09T14:56:04;1.73;;;1.60;;
11699;SDS011;5906;51.660;6.674;2022-09-09T14:58:32;3.30;;;2.57;;
11699;SDS011;5906;51.660;6.674;2022-09-09T15:01:03;9.03;;;1.70;;
11699;SDS011;5906;51.660;6.674;2022-09-09T15:03:50;9.37;;;1.90;;
11699;SDS011;5906;51.660;6.674;2022-09-09T15:06:18;4.97;;;1.90;;
11699;SDS011;5906;51.660;6.674;2022-09-09T15:08:46;1.90;;;1.40;;
11699;SDS011;5906;51.660;6.674;2022-09-09T15:11:14;1.70;;;1.50;;
11699;SDS011;5906;51.660;6.674;2022-09-09T15:13:42;2.17;;;1.63;;
11699;SDS011;5906;51.660;6.674;2022-09-09T15:16:11;3.00;;;1.80;;
11699;SDS011;5906;51.660;6.674;2022-09-09T15:18:51;2.67;;;1.60;;
11699;SDS011;5906;51.660;6.674;2022-09-09T15:21:24;3.83;;;1.70;;
11699;SDS011;5906;51.660;6.674;2022-09-09T15:23:55;4.73;;;1.67;;
11699;SDS011;5906;51.660;6.674;2022-09-09T15:26:23;5.47;;;2.17;;
11699;SDS011;5906;51.660;6.674;2022-09-09T15:28:52;2.10;;;1.30;;
11699;SDS011;5906;51.660;6.674;2022-09-09T15:31:21;2.97;;;2.00;;
11699;SDS011;5906;51.660;6.674;2022-09-09T15:33:54;2.87;;;2.10;;
11699;SDS011;5906;51.660;6.674;2022-09-09T15:36:28;2.00;;;1.60;;
11699;SDS011;5906;51.660;6.674;2022-09-09T15:39:02;4.67;;;1.80;;
11699;SDS011;5906;51.660;6.674;2022-09-09T15:41:30;2.00;;;1.73;;
11699;SDS011;5906;51.660;6.674;2022-09-09T15:43:58;7.33;;;1.63;;
11699;SDS011;5906;51.660;6.674;2022-09-09T15:46:29;6.40;;;1.90;;
11699;SDS011;5906;51.660;6.674;2022-09-09T15:49:07;6.70;;;1.90;;
11699;SDS011;5906;51.660;6.674;2022-09-09T15:51:53;2.90;;;1.80;;
11699;SDS011;5906;51.660;6.674;2022-09-09T15:54:25;2.70;;;2.07;;
11699;SDS011;5906;51.660;6.674;2022-09-09T15:56:56;2.07;;;1.40;;
11699;SDS011;5906;51.660;6.674;2022-09-09T15:59:25;2.23;;;1.50;;
11699;SDS011;5906;51.660;6.674;2022-09-09T16:01:54;4.40;;;1.80;;
11699;SDS011;5906;51.660;6.674;2022-09-09T16:04:22;5.03;;;1.90;;
11699;SDS011;5906;51.660;6.674;2022-09-09T16:06:54;4.87;;;2.27;;
11699;SDS011;5906;51.660;6.674;2022-09-09T16:09:24;1.93;;;1.70;;
11699;SDS011;5906;51.660;6.674;2022-09-09T16:11:55;3.73;;;1.77;;
11699;SDS011;5906;51.660;6.674;2022-09-09T16:14:22;2.97;;;1.50;;
11699;SDS011;5906;51.660;6.674;2022-09-09T16:16:51;3.30;;;1.80;;
11699;SDS011;5906;51.660;6.674;2022-09-09T16:19:18;2.60;;;1.77;;
11699;SDS011;5906;51.660;6.674;2022-09-09T16:21:46;4.03;;;1.77;;
11699;SDS011;5906;51.660;6.674;2022-09-09T16:24:16;8.90;;;2.10;;
11699;SDS011;5906;51.660;6.674;2022-09-09T16:26:46;5.10;;;1.80;;
11699;SDS011;5906;51.660;6.674;2022-09-09T16:29:14;2.70;;;1.90;;
11699;SDS011;5906;51.660;6.674;2022-09-09T16:31:43;8.57;;;2.47;;
11699;SDS011;5906;51.660;6.674;2022-09-09T16:34:11;2.17;;;1.70;;
11699;SDS011;5906;51.660;6.674;2022-09-09T16:36:38;3.93;;;1.97;;
11699;SDS011;5906;51.660;6.674;2022-09-09T16:39:08;4.10;;;2.10;;
11699;SDS011;5906;51.660;6.674;2022-09-09T16:41:37;2.17;;;1.77;;
11699;SDS011;5906;51.660;6.674;2022-09-09T16:44:06;3.43;;;2.00;;
11699;SDS011;5906;51.660;6.674;2022-09-09T16:46:36;3.63;;;2.10;;
11699;SDS011;5906;51.660;6.674;2022-09-09T16:49:06;3.53;;;1.83;;
11699;SDS011;5906;51.660;6.674;2022-09-09T16:51:36;2.97;;;2.20;;
11699;SDS011;5906;51.660;6.674;2022-09-09T16:54:08;4.20;;;1.80;;
11699;SDS011;5906;51.660;6.674;2022-09-09T16:56:36;5.87;;;2.43;;
11699;SDS011;5906;51.660;6.674;2022-09-09T16:59:08;4.40;;;2.20;;
11699;SDS011;5906;51.660;6.674;2022-09-09T17:01:37;4.63;;;1.80;;
11699;SDS011;5906;51.660;6.674;2022-09-09T17:04:10;4.97;;;1.70;;
11699;SDS011;5906;51.660;6.674;2022-09-09T17:06:39;3.53;;;1.63;;
11699;SDS011;5906;51.660;6.674;2022-09-09T17:09:08;6.43;;;1.87;;
11699;SDS011;5906;51.660;6.674;2022-09-09T17:11:39;3.63;;;1.87;;
11699;SDS011;5906;51.660;6.674;2022-09-09T17:14:07;6.03;;;1.80;;
11699;SDS011;5906;51.660;6.674;2022-09-09T17:16:35;6.40;;;1.90;;
11699;SDS011;5906;51.660;6.674;2022-09-09T17:19:02;3.03;;;1.90;;
11699;SDS011;5906;51.660;6.674;2022-09-09T17:21:30;5.23;;;1.80;;
11699;SDS011;5906;51.660;6.674;2022-09-09T17:23:57;5.10;;;1.97;;
11699;SDS011;5906;51.660;6.674;2022-09-09T17:26:25;4.53;;;2.10;;
11699;SDS011;5906;51.660;6.674;2022-09-09T17:28:54;8.57;;;2.37;;
11699;SDS011;5906;51.660;6.674;2022-09-09T17:31:25;4.50;;;2.70;;
11699;SDS011;5906;51.660;6.674;2022-09-09T17:33:54;8.30;;;2.43;;
11699;SDS011;5906;51.660;6.674;2022-09-09T17:36:22;4.80;;;2.50;;
11699;SDS011;5906;51.660;6.674;2022-09-09T17:38:51;5.97;;;2.60;;
11699;SDS011;5906;51.660;6.674;2022-09-09T17:41:19;4.70;;;2.23;;
11699;SDS011;5906;51.660;6.674;2022-09-09T17:43:48;3.70;;;2.20;;